sensor_id;sensor_type;location;lat;lon;timestamp;pressure;altitude;pressure_sealevel;temperature;humidity
14269;BME280;7218;51.480;7.006;2023-03-23T00:00:03;99411.94;;;14.53;91.39
14269;BME280;7218;51.480;7.006;2023-03-23T00:02:32;99421.16;;;14.79;89.72
14269;BME280;7218;51.480;7.006;2023-03-23T00:05:02;99409.84;;;14.43;91.62
14269;BME280;7218;51.480;7.006;2023-03-23T00:07:29;99403.44;;;14.48;90.21
14269;BME280;7218;51.480;7.006;2023-03-23T00:09:56;99399.66;;;14.35;90.33
14269;BME280;7218;51.480;7.006;2023-03-23T00:12:28;99399.22;;;14.63;89.29
14269;BME280;7218;51.480;7.006;2023-03-23T00:14:59;99390.91;;;14.36;89.42
14269;BME280;7218;51.480;7.006;2023-03-23T00:17:27;99387.06;;;14.60;88.69
14269;BME280;7218;51.480;7.006;2023-03-23T00:19:54;99397.72;;;14.75;87.48
14269;BME280;7218;51.480;7.006;2023-03-23T00:22:22;99392.78;;;14.86;86.55
14269;BME280;7218;51.480;7.006;2023-03-23T00:24:50;99374.72;;;14.80;87.12
14269;BME280;7218;51.480;7.006;2023-03-23T00:27:18;99378.25;;;15.13;84.83
14269;BME280;7218;51.480;7.006;2023-03-23T00:29:47;99379.50;;;15.06;85.66
14269;BME280;7218;51.480;7.006;2023-03-23T00:32:13;99375.66;;;14.96;85.93
14269;BME280;7218;51.480;7.006;2023-03-23T00:34:42;99376.91;;;14.72;86.45
14269;BME280;7218;51.480;7.006;2023-03-23T00:37:11;99369.47;;;14.80;85.92
14269;BME280;7218;51.480;7.006;2023-03-23T00:39:40;99364.53;;;15.08;85.09
14269;BME280;7218;51.480;7.006;2023-03-23T00:42:09;99374.13;;;14.57;86.82
14269;BME280;7218;51.480;7.006;2023-03-23T00:44:37;99379.66;;;14.86;86.02
14269;BME280;7218;51.480;7.006;2023-03-23T00:47:05;99382.53;;;14.81;86.12
14269;BME280;7218;51.480;7.006;2023-03-23T00:49:34;99392.88;;;14.84;85.72
14269;BME280;7218;51.480;7.006;2023-03-23T00:52:04;99383.59;;;14.43;88.23
14269;BME280;7218;51.480;7.006;2023-03-23T00:54:32;99381.06;;;14.93;85.30
14269;BME280;7218;51.480;7.006;2023-03-23T00:57:00;99376.19;;;15.02;84.84
14269;BME280;7218;51.480;7.006;2023-03-23T00:59:26;99359.97;;;14.94;84.44
14269;BME280;7218;51.480;7.006;2023-03-23T01:01:53;99360.47;;;14.51;86.34
14269;BME280;7218;51.480;7.006;2023-03-23T01:04:19;99352.97;;;14.60;86.29
14269;BME280;7218;51.480;7.006;2023-03-23T01:06:49;99365.19;;;15.12;84.64
14269;BME280;7218;51.480;7.006;2023-03-23T01:09:18;99360.97;;;15.09;84.66
14269;BME280;7218;51.480;7.006;2023-03-23T01:11:46;99363.91;;;15.03;84.54
14269;BME280;7218;51.480;7.006;2023-03-23T01:14:16;99378.50;;;15.08;84.10
14269;BME280;7218;51.480;7.006;2023-03-23T01:16:44;99368.63;;;15.29;82.88
14269;BME280;7218;51.480;7.006;2023-03-23T01:19:10;99365.56;;;14.71;85.23
14269;BME280;7218;51.480;7.006;2023-03-23T01:21:37;99374.28;;;14.72;85.85
14269;BME280;7218;51.480;7.006;2023-03-23T01:24:04;99372.47;;;15.06;83.65
14269;BME280;7218;51.480;7.006;2023-03-23T01:26:31;99384.53;;;14.76;85.41
14269;BME280;7218;51.480;7.006;2023-03-23T01:28:58;99359.53;;;14.86;84.17
14269;BME280;7218;51.480;7.006;2023-03-23T01:31:26;99378.44;;;14.76;85.08
14269;BME280;7218;51.480;7.006;2023-03-23T01:33:52;99352.44;;;14.88;84.19
14269;BME280;7218;51.480;7.006;2023-03-23T01:36:23;99339.78;;;15.12;83.34
14269;BME280;7218;51.480;7.006;2023-03-23T01:38:50;99353.16;;;15.07;83.58
14269;BME280;7218;51.480;7.006;2023-03-23T01:41:17;99341.50;;;14.63;85.37
14269;BME280;7218;51.480;7.006;2023-03-23T01:43:55;99315.09;;;15.32;82.81
14269;BME280;7218;51.480;7.006;2023-03-23T01:46:23;99279.44;;;14.95;83.94
14269;BME280;7218;51.480;7.006;2023-03-23T01:48:51;99272.63;;;15.08;83.40
14269;BME280;7218;51.480;7.006;2023-03-23T01:51:19;99297.75;;;14.96;84.36
14269;BME280;7218;51.480;7.006;2023-03-23T01:53:48;99283.97;;;14.76;82.91
14269;BME280;7218;51.480;7.006;2023-03-23T01:56:20;99278.78;;;15.07;81.93
14269;BME280;7218;51.480;7.006;2023-03-23T01:58:50;99274.78;;;15.00;80.71
14269;BME280;7218;51.480;7.006;2023-03-23T02:01:17;99272.91;;;15.19;79.35
14269;BME280;7218;51.480;7.006;2023-03-23T02:03:45;99268.03;;;15.12;81.82
14269;BME280;7218;51.480;7.006;2023-03-23T02:06:14;99286.91;;;15.02;82.68
14269;BME280;7218;51.480;7.006;2023-03-23T02:08:42;99311.78;;;15.28;81.92
14269;BME280;7218;51.480;7.006;2023-03-23T02:11:14;99322.03;;;15.00;83.08
14269;BME280;7218;51.480;7.006;2023-03-23T02:13:41;99298.59;;;14.97;83.59
14269;BME280;7218;51.480;7.006;2023-03-23T02:16:12;99299.41;;;15.30;82.35
14269;BME280;7218;51.480;7.006;2023-03-23T02:18:52;99305.81;;;15.73;80.13
14269;BME280;7218;51.480;7.006;2023-03-23T02:21:49;99312.28;;;15.19;82.71
14269;BME280;7218;51.480;7.006;2023-03-23T02:24:52;99325.63;;;15.47;81.82
14269;BME280;7218;51.480;7.006;2023-03-23T02:30:17;99291.31;;;15.02;85.74
14269;BME280;7218;51.480;7.006;2023-03-23T02:35:43;99283.38;;;15.03;86.41
14269;BME280;7218;51.480;7.006;2023-03-23T02:38:15;99285.44;;;15.14;86.50
14269;BME280;7218;51.480;7.006;2023-03-23T02:40:45;99301.88;;;14.68;87.95
14269;BME280;7218;51.480;7.006;2023-03-23T02:43:15;99290.47;;;14.51;89.17
14269;BME280;7218;51.480;7.006;2023-03-23T02:45:44;99276.69;;;14.81;88.63
14269;BME280;7218;51.480;7.006;2023-03-23T02:48:14;99265.06;;;15.02;86.82
14269;BME280;7218;51.480;7.006;2023-03-23T02:50:45;99248.00;;;14.78;88.21
14269;BME280;7218;51.480;7.006;2023-03-23T02:53:16;99261.06;;;14.62;89.10
14269;BME280;7218;51.480;7.006;2023-03-23T02:55:46;99251.78;;;14.72;88.90
14269;BME280;7218;51.480;7.006;2023-03-23T02:58:14;99261.13;;;14.78;88.32
14269;BME280;7218;51.480;7.006;2023-03-23T03:00:41;99267.47;;;14.56;89.30
14269;BME280;7218;51.480;7.006;2023-03-23T03:03:13;99279.50;;;14.78;87.49
14269;BME280;7218;51.480;7.006;2023-03-23T03:05:46;99267.25;;;15.09;85.94
14269;BME280;7218;51.480;7.006;2023-03-23T03:08:23;99276.94;;;15.09;85.77
14269;BME280;7218;51.480;7.006;2023-03-23T03:10:56;99272.47;;;14.61;88.40
14269;BME280;7218;51.480;7.006;2023-03-23T03:13:31;99282.91;;;14.45;88.94
14269;BME280;7218;51.480;7.006;2023-03-23T03:16:04;99281.44;;;14.74;87.52
14269;BME280;7218;51.480;7.006;2023-03-23T03:18:38;99285.47;;;14.80;86.95
14269;BME280;7218;51.480;7.006;2023-03-23T03:21:09;99265.28;;;14.82;86.53
14269;BME280;7218;51.480;7.006;2023-03-23T03:23:40;99283.88;;;14.44;87.73
14269;BME280;7218;51.480;7.006;2023-03-23T03:26:10;99269.25;;;14.56;86.67
14269;BME280;7218;51.480;7.006;2023-03-23T03:28:38;99252.03;;;14.68;85.99
14269;BME280;7218;51.480;7.006;2023-03-23T03:31:05;99262.06;;;14.59;86.75
14269;BME280;7218;51.480;7.006;2023-03-23T03:33:33;99269.59;;;14.83;85.04
14269;BME280;7218;51.480;7.006;2023-03-23T03:36:01;99243.66;;;14.77;85.03
14269;BME280;7218;51.480;7.006;2023-03-23T03:38:40;99252.75;;;14.87;85.11
14269;BME280;7218;51.480;7.006;2023-03-23T03:41:07;99258.84;;;14.54;86.31
14269;BME280;7218;51.480;7.006;2023-03-23T03:43:34;99258.38;;;14.63;85.30
14269;BME280;7218;51.480;7.006;2023-03-23T03:46:01;99255.88;;;14.60;85.21
14269;BME280;7218;51.480;7.006;2023-03-23T03:48:27;99259.69;;;14.55;85.30
14269;BME280;7218;51.480;7.006;2023-03-23T03:50:54;99253.13;;;14.46;85.39
14269;BME280;7218;51.480;7.006;2023-03-23T03:53:21;99250.44;;;14.48;85.91
14269;BME280;7218;51.480;7.006;2023-03-23T03:55:49;99256.91;;;14.91;84.12
14269;BME280;7218;51.480;7.006;2023-03-23T03:58:20;99254.81;;;14.97;83.68
14269;BME280;7218;51.480;7.006;2023-03-23T04:00:47;99258.25;;;14.49;85.51
14269;BME280;7218;51.480;7.006;2023-03-23T04:03:13;99261.31;;;14.57;85.67
14269;BME280;7218;51.480;7.006;2023-03-23T04:05:40;99255.06;;;14.93;84.06
14269;BME280;7218;51.480;7.006;2023-03-23T04:08:07;99257.28;;;14.33;86.54
14269;BME280;7218;51.480;7.006;2023-03-23T04:10:33;99258.38;;;14.29;86.87
14269;BME280;7218;51.480;7.006;2023-03-23T04:13:01;99243.09;;;14.87;84.18
14269;BME280;7218;51.480;7.006;2023-03-23T04:15:30;99257.09;;;14.38;86.06
14269;BME280;7218;51.480;7.006;2023-03-23T04:17:57;99258.50;;;14.60;84.89
14269;BME280;7218;51.480;7.006;2023-03-23T04:20:24;99261.63;;;14.51;85.92
14269;BME280;7218;51.480;7.006;2023-03-23T04:22:51;99255.88;;;14.78;83.92
14269;BME280;7218;51.480;7.006;2023-03-23T04:25:20;99250.63;;;14.78;84.15
14269;BME280;7218;51.480;7.006;2023-03-23T04:27:47;99255.72;;;14.96;82.70
14269;BME280;7218;51.480;7.006;2023-03-23T04:30:20;99272.50;;;15.09;82.50
14269;BME280;7218;51.480;7.006;2023-03-23T04:32:48;99262.31;;;14.88;83.22
14269;BME280;7218;51.480;7.006;2023-03-23T04:35:19;99262.16;;;14.91;83.36
14269;BME280;7218;51.480;7.006;2023-03-23T04:37:46;99267.19;;;14.45;84.78
14269;BME280;7218;51.480;7.006;2023-03-23T04:40:14;99281.44;;;14.57;85.36
14269;BME280;7218;51.480;7.006;2023-03-23T04:42:42;99279.56;;;14.76;84.58
14269;BME280;7218;51.480;7.006;2023-03-23T04:45:10;99277.41;;;14.33;86.14
14269;BME280;7218;51.480;7.006;2023-03-23T04:47:40;99279.91;;;14.86;83.58
14269;BME280;7218;51.480;7.006;2023-03-23T04:50:08;99275.03;;;14.45;85.54
14269;BME280;7218;51.480;7.006;2023-03-23T04:52:36;99278.91;;;14.38;85.85
14269;BME280;7218;51.480;7.006;2023-03-23T04:55:06;99282.91;;;14.28;86.40
14269;BME280;7218;51.480;7.006;2023-03-23T04:57:34;99269.75;;;14.80;83.91
14269;BME280;7218;51.480;7.006;2023-03-23T05:00:02;99281.22;;;14.61;84.27
14269;BME280;7218;51.480;7.006;2023-03-23T05:02:34;99287.78;;;14.53;84.43
14269;BME280;7218;51.480;7.006;2023-03-23T05:05:02;99280.88;;;15.00;82.67
14269;BME280;7218;51.480;7.006;2023-03-23T05:07:29;99277.03;;;15.07;81.27
14269;BME280;7218;51.480;7.006;2023-03-23T05:09:56;99284.56;;;15.14;80.89
14269;BME280;7218;51.480;7.006;2023-03-23T05:12:22;99297.72;;;14.63;83.68
14269;BME280;7218;51.480;7.006;2023-03-23T05:14:49;99302.13;;;14.46;84.05
14269;BME280;7218;51.480;7.006;2023-03-23T05:17:15;99293.66;;;14.58;83.83
14269;BME280;7218;51.480;7.006;2023-03-23T05:19:44;99295.06;;;14.81;82.76
14269;BME280;7218;51.480;7.006;2023-03-23T05:22:13;99298.78;;;14.77;83.50
14269;BME280;7218;51.480;7.006;2023-03-23T05:24:40;99304.75;;;14.46;84.06
14269;BME280;7218;51.480;7.006;2023-03-23T05:27:08;99308.28;;;14.62;83.91
14269;BME280;7218;51.480;7.006;2023-03-23T05:29:35;99292.91;;;14.72;83.18
14269;BME280;7218;51.480;7.006;2023-03-23T05:32:02;99310.66;;;14.84;82.93
14269;BME280;7218;51.480;7.006;2023-03-23T05:34:30;99303.66;;;15.00;82.53
14269;BME280;7218;51.480;7.006;2023-03-23T05:36:58;99295.41;;;15.07;80.97
14269;BME280;7218;51.480;7.006;2023-03-23T05:39:26;99305.97;;;15.06;81.80
14269;BME280;7218;51.480;7.006;2023-03-23T05:41:52;99303.28;;;15.07;80.73
14269;BME280;7218;51.480;7.006;2023-03-23T05:44:19;99311.59;;;14.65;82.39
14269;BME280;7218;51.480;7.006;2023-03-23T05:46:45;99313.34;;;14.31;84.71
14269;BME280;7218;51.480;7.006;2023-03-23T05:49:13;99306.84;;;14.56;83.40
14269;BME280;7218;51.480;7.006;2023-03-23T05:51:41;99309.94;;;14.47;83.09
14269;BME280;7218;51.480;7.006;2023-03-23T05:54:07;99304.72;;;15.13;81.35
14269;BME280;7218;51.480;7.006;2023-03-23T05:59:10;99310.69;;;14.99;82.14
14269;BME280;7218;51.480;7.006;2023-03-23T06:01:37;99318.47;;;14.68;82.16
14269;BME280;7218;51.480;7.006;2023-03-23T06:04:04;99301.31;;;15.11;80.21
14269;BME280;7218;51.480;7.006;2023-03-23T06:06:30;99319.66;;;14.95;80.93
14269;BME280;7218;51.480;7.006;2023-03-23T06:08:58;99327.41;;;14.98;81.13
14269;BME280;7218;51.480;7.006;2023-03-23T06:11:25;99317.69;;;14.83;81.51
14269;BME280;7218;51.480;7.006;2023-03-23T06:13:51;99328.69;;;14.74;82.57
14269;BME280;7218;51.480;7.006;2023-03-23T06:16:22;99326.41;;;15.17;80.31
14269;BME280;7218;51.480;7.006;2023-03-23T06:18:50;99320.38;;;15.47;78.83
14269;BME280;7218;51.480;7.006;2023-03-23T06:21:17;99325.97;;;14.58;83.11
14269;BME280;7218;51.480;7.006;2023-03-23T06:23:44;99341.22;;;14.85;81.42
14269;BME280;7218;51.480;7.006;2023-03-23T06:26:13;99328.13;;;15.18;80.73
14269;BME280;7218;51.480;7.006;2023-03-23T06:28:41;99322.06;;;15.64;77.79
14269;BME280;7218;51.480;7.006;2023-03-23T06:31:08;99323.03;;;15.79;76.81
14269;BME280;7218;51.480;7.006;2023-03-23T06:33:37;99333.22;;;15.36;79.01
14269;BME280;7218;51.480;7.006;2023-03-23T06:36:05;99339.16;;;15.40;78.83
14269;BME280;7218;51.480;7.006;2023-03-23T06:38:31;99335.97;;;14.85;80.69
14269;BME280;7218;51.480;7.006;2023-03-23T06:40:58;99337.56;;;15.37;78.31
14269;BME280;7218;51.480;7.006;2023-03-23T06:43:25;99337.84;;;14.65;81.52
14269;BME280;7218;51.480;7.006;2023-03-23T06:45:51;99339.50;;;15.01;80.18
14269;BME280;7218;51.480;7.006;2023-03-23T06:48:18;99325.06;;;15.25;78.05
14269;BME280;7218;51.480;7.006;2023-03-23T06:50:46;99340.03;;;15.07;79.28
14269;BME280;7218;51.480;7.006;2023-03-23T06:53:13;99340.59;;;14.97;79.78
14269;BME280;7218;51.480;7.006;2023-03-23T06:55:42;99330.75;;;15.18;78.96
14269;BME280;7218;51.480;7.006;2023-03-23T06:58:09;99337.72;;;15.01;79.53
14269;BME280;7218;51.480;7.006;2023-03-23T07:00:36;99340.31;;;15.34;77.19
14269;BME280;7218;51.480;7.006;2023-03-23T07:03:03;99337.44;;;14.90;78.48
14269;BME280;7218;51.480;7.006;2023-03-23T07:05:30;99340.41;;;15.00;78.89
14269;BME280;7218;51.480;7.006;2023-03-23T07:07:58;99342.25;;;14.82;79.33
14269;BME280;7218;51.480;7.006;2023-03-23T07:10:24;99336.75;;;15.20;76.89
14269;BME280;7218;51.480;7.006;2023-03-23T07:12:51;99335.63;;;15.08;77.54
14269;BME280;7218;51.480;7.006;2023-03-23T07:15:18;99353.31;;;15.04;76.89
14269;BME280;7218;51.480;7.006;2023-03-23T07:17:44;99347.78;;;14.76;78.20
14269;BME280;7218;51.480;7.006;2023-03-23T07:20:12;99348.44;;;15.30;76.17
14269;BME280;7218;51.480;7.006;2023-03-23T07:22:38;99357.56;;;14.90;78.09
14269;BME280;7218;51.480;7.006;2023-03-23T07:25:07;99365.47;;;15.56;75.41
14269;BME280;7218;51.480;7.006;2023-03-23T07:27:34;99365.34;;;15.59;74.29
14269;BME280;7218;51.480;7.006;2023-03-23T07:30:00;99366.00;;;15.29;76.36
14269;BME280;7218;51.480;7.006;2023-03-23T07:32:27;99368.91;;;15.73;73.37
14269;BME280;7218;51.480;7.006;2023-03-23T07:34:54;99370.75;;;15.23;75.93
14269;BME280;7218;51.480;7.006;2023-03-23T07:37:21;99373.91;;;15.45;74.74
14269;BME280;7218;51.480;7.006;2023-03-23T07:39:48;99357.53;;;15.73;73.33
14269;BME280;7218;51.480;7.006;2023-03-23T07:42:16;99370.81;;;14.88;77.32
14269;BME280;7218;51.480;7.006;2023-03-23T07:44:43;99384.22;;;14.65;78.44
14269;BME280;7218;51.480;7.006;2023-03-23T07:47:10;99368.41;;;14.67;78.67
14269;BME280;7218;51.480;7.006;2023-03-23T07:49:36;99366.72;;;14.83;77.52
14269;BME280;7218;51.480;7.006;2023-03-23T07:52:03;99377.06;;;14.69;77.97
14269;BME280;7218;51.480;7.006;2023-03-23T07:54:30;99381.59;;;15.32;74.96
14269;BME280;7218;51.480;7.006;2023-03-23T07:56:57;99380.44;;;15.38;74.08
14269;BME280;7218;51.480;7.006;2023-03-23T07:59:25;99374.75;;;15.45;74.58
14269;BME280;7218;51.480;7.006;2023-03-23T08:01:51;99360.41;;;16.00;71.89
14269;BME280;7218;51.480;7.006;2023-03-23T08:04:18;99384.50;;;15.11;75.77
14269;BME280;7218;51.480;7.006;2023-03-23T08:06:44;99373.19;;;15.74;72.39
14269;BME280;7218;51.480;7.006;2023-03-23T08:09:12;99375.84;;;15.59;72.63
14269;BME280;7218;51.480;7.006;2023-03-23T08:11:39;99373.56;;;15.84;71.36
14269;BME280;7218;51.480;7.006;2023-03-23T08:14:05;99376.28;;;15.34;73.85
14269;BME280;7218;51.480;7.006;2023-03-23T08:16:33;99382.34;;;15.19;74.25
14269;BME280;7218;51.480;7.006;2023-03-23T08:19:01;99371.59;;;15.23;74.43
14269;BME280;7218;51.480;7.006;2023-03-23T08:21:27;99377.50;;;16.38;69.53
14269;BME280;7218;51.480;7.006;2023-03-23T08:23:54;99379.72;;;15.34;73.29
14269;BME280;7218;51.480;7.006;2023-03-23T08:26:21;99383.13;;;16.01;70.65
14269;BME280;7218;51.480;7.006;2023-03-23T08:28:47;99374.91;;;15.75;71.54
14269;BME280;7218;51.480;7.006;2023-03-23T08:31:14;99399.38;;;15.27;73.24
14269;BME280;7218;51.480;7.006;2023-03-23T08:33:43;99377.28;;;15.80;71.15
14269;BME280;7218;51.480;7.006;2023-03-23T08:36:10;99391.78;;;15.05;73.12
14269;BME280;7218;51.480;7.006;2023-03-23T08:38:37;99379.59;;;16.02;70.16
14269;BME280;7218;51.480;7.006;2023-03-23T08:41:05;99388.56;;;15.66;70.96
14269;BME280;7218;51.480;7.006;2023-03-23T08:43:33;99405.50;;;15.61;70.97
14269;BME280;7218;51.480;7.006;2023-03-23T08:46:00;99384.66;;;15.58;71.54
14269;BME280;7218;51.480;7.006;2023-03-23T08:48:32;99388.56;;;15.82;70.38
14269;BME280;7218;51.480;7.006;2023-03-23T08:51:02;99380.78;;;15.96;69.69
14269;BME280;7218;51.480;7.006;2023-03-23T08:53:28;99388.13;;;16.36;68.48
14269;BME280;7218;51.480;7.006;2023-03-23T08:55:56;99400.44;;;16.20;67.84
14269;BME280;7218;51.480;7.006;2023-03-23T08:58:28;99386.84;;;16.44;67.11
14269;BME280;7218;51.480;7.006;2023-03-23T09:00:55;99401.75;;;14.99;73.19
14269;BME280;7218;51.480;7.006;2023-03-23T09:03:21;99403.81;;;16.38;67.60
14269;BME280;7218;51.480;7.006;2023-03-23T09:05:48;99400.78;;;15.83;70.04
14269;BME280;7218;51.480;7.006;2023-03-23T09:08:16;99410.94;;;15.89;69.77
14269;BME280;7218;51.480;7.006;2023-03-23T09:10:43;99427.13;;;15.33;71.62
14269;BME280;7218;51.480;7.006;2023-03-23T09:13:10;99412.31;;;15.47;71.47
14269;BME280;7218;51.480;7.006;2023-03-23T09:15:36;99408.81;;;15.31;71.60
14269;BME280;7218;51.480;7.006;2023-03-23T09:18:03;99414.84;;;15.33;71.57
14269;BME280;7218;51.480;7.006;2023-03-23T09:20:30;99418.09;;;14.70;74.26
14269;BME280;7218;51.480;7.006;2023-03-23T09:22:57;99414.41;;;15.58;70.65
14269;BME280;7218;51.480;7.006;2023-03-23T09:25:27;99412.84;;;15.21;72.36
14269;BME280;7218;51.480;7.006;2023-03-23T09:27:55;99398.03;;;15.53;70.77
14269;BME280;7218;51.480;7.006;2023-03-23T09:30:24;99417.91;;;15.59;71.17
14269;BME280;7218;51.480;7.006;2023-03-23T09:32:51;99421.59;;;15.55;71.06
14269;BME280;7218;51.480;7.006;2023-03-23T09:35:18;99424.91;;;14.91;73.42
14269;BME280;7218;51.480;7.006;2023-03-23T09:37:49;99427.09;;;15.99;69.17
14269;BME280;7218;51.480;7.006;2023-03-23T09:40:19;99432.63;;;15.61;70.91
14269;BME280;7218;51.480;7.006;2023-03-23T09:42:58;99448.38;;;15.11;73.34
14269;BME280;7218;51.480;7.006;2023-03-23T09:45:33;99445.38;;;15.19;73.69
14269;BME280;7218;51.480;7.006;2023-03-23T09:48:22;99449.41;;;16.07;71.78
14269;BME280;7218;51.480;7.006;2023-03-23T09:50:54;99482.53;;;15.94;72.00
14269;BME280;7218;51.480;7.006;2023-03-23T09:53:26;99497.16;;;15.49;76.27
14269;BME280;7218;51.480;7.006;2023-03-23T09:56:00;99504.44;;;15.10;78.94
14269;BME280;7218;51.480;7.006;2023-03-23T09:58:31;99510.44;;;14.78;83.11
14269;BME280;7218;51.480;7.006;2023-03-23T10:01:02;99518.25;;;14.43;85.62
14269;BME280;7218;51.480;7.006;2023-03-23T10:03:36;99509.50;;;13.66;88.32
14269;BME280;7218;51.480;7.006;2023-03-23T10:06:05;99507.88;;;14.03;88.23
14269;BME280;7218;51.480;7.006;2023-03-23T10:08:34;99506.59;;;13.54;88.53
14269;BME280;7218;51.480;7.006;2023-03-23T10:11:02;99500.63;;;14.08;88.72
14269;BME280;7218;51.480;7.006;2023-03-23T10:13:49;99507.28;;;14.15;88.18
14269;BME280;7218;51.480;7.006;2023-03-23T10:16:21;99529.59;;;14.05;89.49
14269;BME280;7218;51.480;7.006;2023-03-23T10:18:52;99541.03;;;14.04;89.11
14269;BME280;7218;51.480;7.006;2023-03-23T10:21:24;99518.06;;;14.09;88.91
14269;BME280;7218;51.480;7.006;2023-03-23T10:23:54;99527.44;;;14.33;88.29
14269;BME280;7218;51.480;7.006;2023-03-23T10:26:31;99525.34;;;13.84;88.40
14269;BME280;7218;51.480;7.006;2023-03-23T10:29:09;99537.78;;;14.36;86.86
14269;BME280;7218;51.480;7.006;2023-03-23T10:31:41;99543.56;;;14.05;86.49
14269;BME280;7218;51.480;7.006;2023-03-23T10:34:12;99541.09;;;13.23;88.83
14269;BME280;7218;51.480;7.006;2023-03-23T10:36:51;99545.44;;;13.44;89.61
14269;BME280;7218;51.480;7.006;2023-03-23T10:39:23;99535.69;;;14.05;86.95
14269;BME280;7218;51.480;7.006;2023-03-23T10:41:50;99542.03;;;13.81;87.31
14269;BME280;7218;51.480;7.006;2023-03-23T10:44:20;99549.53;;;14.09;88.21
14269;BME280;7218;51.480;7.006;2023-03-23T10:46:52;99552.59;;;13.79;90.22
14269;BME280;7218;51.480;7.006;2023-03-23T10:49:24;99550.13;;;13.56;91.72
14269;BME280;7218;51.480;7.006;2023-03-23T10:51:58;99543.09;;;13.77;92.81
14269;BME280;7218;51.480;7.006;2023-03-23T10:54:31;99540.28;;;13.41;94.94
14269;BME280;7218;51.480;7.006;2023-03-23T10:56:58;99546.81;;;13.92;89.78
14269;BME280;7218;51.480;7.006;2023-03-23T10:59:30;99538.00;;;13.74;91.54
14269;BME280;7218;51.480;7.006;2023-03-23T11:02:00;99535.22;;;14.16;89.76
14269;BME280;7218;51.480;7.006;2023-03-23T11:04:30;99556.56;;;13.69;92.35
14269;BME280;7218;51.480;7.006;2023-03-23T11:07:00;99548.16;;;12.77;98.02
14269;BME280;7218;51.480;7.006;2023-03-23T11:09:36;99542.56;;;13.89;92.56
14269;BME280;7218;51.480;7.006;2023-03-23T11:12:04;99553.31;;;13.83;92.49
14269;BME280;7218;51.480;7.006;2023-03-23T11:14:33;99552.47;;;13.42;93.37
14269;BME280;7218;51.480;7.006;2023-03-23T11:17:05;99548.63;;;12.65;97.99
14269;BME280;7218;51.480;7.006;2023-03-23T11:19:34;99547.00;;;12.84;98.40
14269;BME280;7218;51.480;7.006;2023-03-23T11:22:07;99560.06;;;12.41;99.66
14269;BME280;7218;51.480;7.006;2023-03-23T11:24:35;99551.78;;;12.30;100.00
14269;BME280;7218;51.480;7.006;2023-03-23T11:27:03;99559.81;;;12.25;99.21
14269;BME280;7218;51.480;7.006;2023-03-23T11:29:37;99536.47;;;12.86;97.54
14269;BME280;7218;51.480;7.006;2023-03-23T11:32:10;99543.44;;;13.29;96.81
14269;BME280;7218;51.480;7.006;2023-03-23T11:34:41;99538.13;;;13.51;94.54
14269;BME280;7218;51.480;7.006;2023-03-23T11:37:10;99546.06;;;12.85;96.78
14269;BME280;7218;51.480;7.006;2023-03-23T11:39:54;99555.16;;;12.99;96.61
14269;BME280;7218;51.480;7.006;2023-03-23T11:42:23;99538.94;;;12.69;98.41
14269;BME280;7218;51.480;7.006;2023-03-23T11:44:55;99541.88;;;13.45;94.51
14269;BME280;7218;51.480;7.006;2023-03-23T11:47:41;99532.69;;;13.55;95.63
14269;BME280;7218;51.480;7.006;2023-03-23T11:50:14;99539.38;;;13.22;96.99
14269;BME280;7218;51.480;7.006;2023-03-23T11:52:47;99534.56;;;14.30;93.04
14269;BME280;7218;51.480;7.006;2023-03-23T11:55:19;99514.09;;;14.56;91.23
14269;BME280;7218;51.480;7.006;2023-03-23T11:57:47;99526.94;;;14.62;90.10
14269;BME280;7218;51.480;7.006;2023-03-23T12:00:18;99516.50;;;14.97;88.27
14269;BME280;7218;51.480;7.006;2023-03-23T12:02:50;99525.41;;;14.76;89.07
14269;BME280;7218;51.480;7.006;2023-03-23T12:05:30;99516.44;;;14.98;87.93
14269;BME280;7218;51.480;7.006;2023-03-23T12:08:09;99517.97;;;14.49;90.48
14269;BME280;7218;51.480;7.006;2023-03-23T12:10:45;99520.78;;;14.45;91.56
14269;BME280;7218;51.480;7.006;2023-03-23T12:13:29;99527.22;;;14.56;89.68
14269;BME280;7218;51.480;7.006;2023-03-23T12:16:09;99536.91;;;14.17;92.15
14269;BME280;7218;51.480;7.006;2023-03-23T12:18:46;99533.81;;;14.28;92.22
14269;BME280;7218;51.480;7.006;2023-03-23T12:21:24;99533.50;;;14.15;92.24
14269;BME280;7218;51.480;7.006;2023-03-23T12:24:00;99536.28;;;13.73;93.72
14269;BME280;7218;51.480;7.006;2023-03-23T12:26:31;99547.56;;;14.14;92.86
14269;BME280;7218;51.480;7.006;2023-03-23T12:29:35;99555.59;;;13.91;92.50
14269;BME280;7218;51.480;7.006;2023-03-23T12:32:23;99551.31;;;14.27;92.52
14269;BME280;7218;51.480;7.006;2023-03-23T12:34:58;99547.94;;;14.62;91.83
14269;BME280;7218;51.480;7.006;2023-03-23T12:37:40;99536.22;;;14.51;91.74
14269;BME280;7218;51.480;7.006;2023-03-23T12:40:25;99521.41;;;14.86;90.72
14269;BME280;7218;51.480;7.006;2023-03-23T12:42:59;99520.56;;;14.85;90.60
14269;BME280;7218;51.480;7.006;2023-03-23T12:45:47;99530.88;;;15.07;88.87
14269;BME280;7218;51.480;7.006;2023-03-23T12:48:20;99535.53;;;15.54;88.11
14269;BME280;7218;51.480;7.006;2023-03-23T12:51:06;99525.00;;;15.02;90.88
14269;BME280;7218;51.480;7.006;2023-03-23T12:53:38;99532.31;;;14.59;92.79
14269;BME280;7218;51.480;7.006;2023-03-23T12:56:16;99518.72;;;14.87;92.93
14269;BME280;7218;51.480;7.006;2023-03-23T12:58:45;99523.81;;;14.90;92.86
14269;BME280;7218;51.480;7.006;2023-03-23T13:01:15;99541.38;;;14.71;93.95
14269;BME280;7218;51.480;7.006;2023-03-23T13:03:50;99526.38;;;14.92;93.62
14269;BME280;7218;51.480;7.006;2023-03-23T13:06:23;99525.28;;;14.60;95.72
14269;BME280;7218;51.480;7.006;2023-03-23T13:08:55;99517.59;;;15.62;91.59
14269;BME280;7218;51.480;7.006;2023-03-23T13:11:26;99503.44;;;15.97;88.29
14269;BME280;7218;51.480;7.006;2023-03-23T13:13:59;99515.16;;;15.40;90.10
14269;BME280;7218;51.480;7.006;2023-03-23T13:16:35;99510.03;;;15.38;90.33
14269;BME280;7218;51.480;7.006;2023-03-23T13:19:13;99499.53;;;15.04;91.25
14269;BME280;7218;51.480;7.006;2023-03-23T13:21:43;99498.34;;;15.44;89.73
14269;BME280;7218;51.480;7.006;2023-03-23T13:24:14;99488.63;;;15.12;92.35
14269;BME280;7218;51.480;7.006;2023-03-23T13:26:42;99472.66;;;16.77;84.24
14269;BME280;7218;51.480;7.006;2023-03-23T13:29:13;99481.00;;;18.15;76.56
14269;BME280;7218;51.480;7.006;2023-03-23T13:31:43;99473.47;;;18.49;77.05